Nearby METAR Reports

 

KDFW - Dallas/Ft Worth, Texas, USA
Distance from station: SSE 10mi, 16km
Updated: Sat, 04-Jul-2020 9:53am CDT
Mostly cloudy
Mostly cloudy
 Wind from SSW
Wind: SSW 7 mph , 11 km/h
Temperature: 84°F , 29°C
Heat Index: 89°F , 32°C
Dew Point: 72°F , 22°C
Humidity: 66%
Barometer: 29.93 inHg , 1013.5 hPa
Clouds: Mostly cloudy
Visibility: 10 miles , 16 km
Cloud details: Few Clouds 25000 ft
Mostly cloudy 30000 ft
2020/07/04 14:53 KDFW 041453Z 20006KT 10SM FEW250 BKN300 29/22 A2993 RMK AO2 SLP125 T02890217 53001 $
KDTO - Denton, Texas, USA
Distance from station: NNW 13mi, 21km
Updated: Sat, 04-Jul-2020 9:53am CDT
Clear
Clear
 Wind from SSW
Wind: SSW 8 mph , 13 km/h
Temperature: 86°F , 30°C
Heat Index: 91°F , 33°C
Dew Point: 70°F , 21°C
Humidity: 59%
Barometer: 29.94 inHg , 1013.9 hPa
Clouds: Clear
Visibility: 10 miles , 16 km
2020/07/04 14:53 KDTO 041453Z 20007KT 10SM CLR 30/21 A2994 RMK AO2 SLP129 T03000206 53001
 
KAFW - Ft Worth/Allianc, Texas, USA
Distance from station: WSW 14mi, 22km
Updated: Sat, 04-Jul-2020 9:53am CDT
Overcast
Overcast
 Wind from SSW
Wind: SSW 9 mph , 15 km/h
Temperature: 84°F , 29°C
Heat Index: 88°F , 31°C
Dew Point: 70°F , 21°C
Humidity: 62%
Barometer: 29.94 inHg , 1013.9 hPa
Clouds: Overcast
Visibility: 10 miles , 16 km
Cloud details: Few Clouds 18000 ft
Overcast 30000 ft
2020/07/04 14:53 KAFW 041453Z 21008KT 10SM FEW180 OVC300 29/21 A2994 RMK AO2 SLP119 T02940206 53003
KADS - Dallas/Addison, Texas, USA
Distance from station: ESE 17mi, 27km
Updated: Sat, 04-Jul-2020 8:51am CDT
NOT Current
Clear
Clear
 Wind from S
Wind: S 6 mph , 9 km/h
Temperature: 82°F , 28°C
Heat Index: 85°F , 29°C
Dew Point: 68°F , 20°C
Humidity: 62%
Barometer: 29.95 inHg , 1014.2 hPa
Clouds: Clear
Visibility: 10 miles , 16 km
2020/07/04 13:51 KADS 041351Z 18005KT 10SM SKC 28/20 A2995
 
KDAL - Dallas/Love Fld, Texas, USA
Distance from station: SE 19mi, 30km
Updated: Sat, 04-Jul-2020 9:53am CDT
Mostly cloudy
Mostly cloudy
 Wind from S
Wind: S 7 mph , 11 km/h
Temperature: 84°F , 29°C
Heat Index: 88°F , 31°C
Dew Point: 70°F , 21°C
Humidity: 62%
Barometer: 29.94 inHg , 1013.9 hPa
Clouds: Mostly cloudy
Visibility: 10 miles , 16 km
Cloud details: Few Clouds 25000 ft
Mostly cloudy 30000 ft
2020/07/04 14:53 KDAL 041453Z 19006KT 10SM FEW250 BKN300 29/21 A2994 RMK AO2 SLP131 T02940206 55000 $
KFTW - Fort Worth, Texas, USA
Distance from station: SW 21mi, 34km
Updated: Sat, 04-Jul-2020 9:53am CDT
Clear
Clear
 Wind from SSW
Wind: SSW 8 mph , 13 km/h
Temperature: 82°F , 28°C
Heat Index: 86°F , 30°C
Dew Point: 72°F , 22°C
Humidity: 70%
Barometer: 29.94 inHg , 1013.9 hPa
Clouds: Clear
Visibility: 10 miles , 16 km
2020/07/04 14:53 KFTW 041453Z 20007KT 10SM CLR 28/22 A2994 RMK AO2 SLP127 T02780222 53002
 
KGPM - Grand Prairie, Texas, USA
Distance from station: S 23mi, 37km
Updated: Sat, 04-Jul-2020 9:50am CDT
Clear
Clear
 Wind from SSW
Wind: SSW 8 mph , 13 km/h
Temperature: 84°F , 29°C
Heat Index: 87°F , 31°C
Dew Point: 68°F , 20°C
Humidity: 58%
Barometer: 29.96 inHg , 1014.6 hPa
Clouds: Clear
Visibility: 10 miles , 16 km
2020/07/04 14:50 KGPM 041450Z 21007KT 10SM SKC 29/20 A2996
KGKY - Arlington, Texas, USA
Distance from station: S 25mi, 41km
Updated: Sat, 04-Jul-2020 9:53am CDT
Clear
Clear
 Wind from S
Wind: S 6 mph , 9 km/h
Temperature: 86°F , 30°C
Heat Index: 92°F , 33°C
Dew Point: 72°F , 22°C
Humidity: 62%
Barometer: 29.94 inHg , 1013.9 hPa
Clouds: Clear
Visibility: 10 miles , 16 km
2020/07/04 14:53 KGKY 041453Z 19005KT 10SM CLR 30/22 A2994 RMK AO2 SLP129 T03000217 50001 $